createdAt,value
2023-05-07T00:02:21.559Z,6.30
2023-05-07T00:04:48.927Z,6.53
2023-05-07T00:07:16.444Z,6.43
2023-05-07T00:09:44.535Z,6.13
2023-05-07T00:12:11.805Z,6.23
2023-05-07T00:14:39.190Z,6.70
2023-05-07T00:17:06.402Z,6.18
2023-05-07T00:19:33.730Z,6.18
2023-05-07T00:22:01.022Z,6.15
2023-05-07T00:24:28.295Z,6.13
2023-05-07T00:26:55.726Z,6.03
2023-05-07T00:29:23.110Z,5.93
2023-05-07T00:31:51.148Z,6.18
2023-05-07T00:34:19.756Z,5.50
2023-05-07T00:36:47.145Z,6.13
2023-05-07T00:39:14.575Z,5.72
2023-05-07T00:41:41.916Z,6.18
2023-05-07T00:44:09.743Z,6.25
2023-05-07T00:46:37.083Z,6.00
2023-05-07T00:49:05.062Z,5.70
2023-05-07T00:51:32.334Z,5.78
2023-05-07T00:54:01.473Z,6.10
2023-05-07T00:56:28.715Z,5.68
2023-05-07T00:58:56.112Z,5.55
2023-05-07T01:01:23.697Z,5.93
2023-05-07T01:03:51.149Z,5.55
2023-05-07T01:06:18.879Z,5.30
2023-05-07T01:08:46.804Z,5.47
2023-05-07T01:11:14.277Z,5.85
2023-05-07T01:13:41.668Z,5.73
2023-05-07T01:16:09.937Z,5.85
2023-05-07T01:18:37.274Z,5.40
2023-05-07T01:21:05.614Z,5.35
2023-05-07T01:23:32.889Z,5.25
2023-05-07T01:26:00.342Z,5.40
2023-05-07T01:28:29.354Z,5.43
2023-05-07T01:31:03.956Z,5.75
2023-05-07T01:33:34.169Z,6.15
2023-05-07T01:36:03.320Z,6.13
2023-05-07T01:38:30.903Z,6.33
2023-05-07T01:40:58.722Z,6.38
2023-05-07T01:43:26.324Z,6.45
2023-05-07T01:45:53.852Z,6.50
2023-05-07T01:48:21.250Z,6.20
2023-05-07T01:50:48.584Z,6.40
2023-05-07T01:53:16.142Z,5.75
2023-05-07T01:55:44.121Z,6.25
2023-05-07T01:58:11.811Z,5.95
2023-05-07T02:00:40.712Z,6.15
2023-05-07T02:03:09.211Z,6.07
2023-05-07T02:05:50.800Z,6.00
2023-05-07T02:08:27.239Z,6.00
2023-05-07T02:10:55.054Z,5.57
2023-05-07T02:13:23.530Z,5.75
2023-05-07T02:15:51.704Z,5.70
2023-05-07T02:18:19.537Z,6.05
2023-05-07T02:20:46.893Z,5.93
2023-05-07T02:23:14.333Z,6.20
2023-05-07T02:25:41.662Z,5.72
2023-05-07T02:28:08.949Z,5.50
2023-05-07T02:30:49.236Z,6.72
2023-05-07T02:33:16.926Z,6.10
2023-05-07T02:35:44.185Z,5.85
2023-05-07T02:38:13.760Z,6.30
2023-05-07T02:40:42.663Z,6.63
2023-05-07T02:43:10.304Z,7.30
2023-05-07T02:45:38.984Z,6.32
2023-05-07T02:48:08.260Z,6.40
2023-05-07T02:50:35.838Z,6.93
2023-05-07T02:53:03.488Z,7.10
2023-05-07T02:55:32.397Z,6.78
2023-05-07T02:57:59.987Z,6.63
2023-05-07T03:00:27.674Z,7.07
2023-05-07T03:03:05.289Z,6.95
2023-05-07T03:05:32.861Z,6.77
2023-05-07T03:08:00.120Z,6.75
2023-05-07T03:10:27.410Z,6.78
2023-05-07T03:12:54.657Z,6.95
2023-05-07T03:15:22.806Z,6.50
2023-05-07T03:17:50.122Z,7.40
2023-05-07T03:20:17.571Z,7.28
2023-05-07T03:22:45.246Z,7.47
2023-05-07T03:25:13.724Z,6.60
2023-05-07T03:27:40.981Z,7.82
2023-05-07T03:30:09.970Z,7.40
2023-05-07T03:32:37.383Z,6.70
2023-05-07T03:35:08.708Z,7.07
2023-05-07T03:37:36.055Z,7.03
2023-05-07T03:40:04.057Z,7.18
2023-05-07T03:42:34.786Z,6.97
2023-05-07T03:45:02.195Z,7.22
2023-05-07T03:47:29.784Z,7.47
2023-05-07T03:49:57.320Z,7.28
2023-05-07T03:52:27.062Z,6.97
2023-05-07T03:54:57.763Z,7.00
2023-05-07T03:57:25.710Z,7.05
2023-05-07T03:59:53.346Z,7.50
2023-05-07T04:02:20.955Z,7.28
2023-05-07T04:04:50.294Z,6.63
2023-05-07T04:07:17.899Z,6.07
2023-05-07T04:09:49.634Z,6.35
2023-05-07T04:12:16.972Z,5.95
2023-05-07T04:14:44.296Z,5.60
2023-05-07T04:17:11.905Z,5.68
2023-05-07T04:19:39.748Z,5.07
2023-05-07T04:22:07.240Z,5.25
2023-05-07T04:24:34.441Z,5.13
2023-05-07T04:27:02.879Z,5.35
2023-05-07T04:29:30.339Z,5.47
2023-05-07T04:31:57.866Z,5.17
2023-05-07T04:34:25.181Z,5.03
2023-05-07T04:36:52.650Z,5.20
2023-05-07T04:39:19.869Z,4.68
2023-05-07T04:41:49.197Z,5.13
2023-05-07T04:44:16.561Z,4.67
2023-05-07T04:46:44.507Z,5.13
2023-05-07T04:49:12.443Z,5.00
2023-05-07T04:51:40.144Z,5.68
2023-05-07T04:54:07.420Z,5.10
2023-05-07T04:56:34.751Z,5.23
2023-05-07T04:59:02.943Z,5.03
2023-05-07T05:01:31.175Z,5.47
2023-05-07T05:03:58.667Z,5.70
2023-05-07T05:06:26.665Z,5.30
2023-05-07T05:08:53.925Z,5.30
2023-05-07T05:11:22.031Z,5.00
2023-05-07T05:13:50.596Z,5.35
2023-05-07T05:16:20.951Z,5.57
2023-05-07T05:18:49.365Z,5.35
2023-05-07T05:21:19.378Z,5.30
2023-05-07T05:23:50.336Z,5.38
2023-05-07T05:26:22.316Z,4.53
2023-05-07T05:28:50.548Z,5.57
2023-05-07T05:31:20.674Z,5.53
2023-05-07T05:33:49.729Z,4.90
2023-05-07T05:36:17.603Z,4.75
2023-05-07T05:38:47.178Z,5.28
2023-05-07T05:41:14.940Z,4.80
2023-05-07T05:43:42.332Z,4.88
2023-05-07T05:46:13.012Z,5.30
2023-05-07T05:48:40.385Z,5.20
2023-05-07T05:51:07.891Z,4.97
2023-05-07T05:53:35.458Z,4.50
2023-05-07T05:56:03.211Z,4.18
2023-05-07T05:58:32.551Z,4.30
2023-05-07T06:01:03.852Z,4.18
2023-05-07T06:03:33.403Z,3.83
2023-05-07T06:06:03.767Z,4.13
2023-05-07T06:08:31.866Z,3.83
2023-05-07T06:11:00.443Z,3.73
2023-05-07T06:13:28.507Z,3.55
2023-05-07T06:15:55.897Z,3.33
2023-05-07T06:18:23.215Z,3.20
2023-05-07T06:20:50.513Z,3.50
2023-05-07T06:23:24.887Z,3.40
2023-05-07T06:25:52.449Z,3.33
2023-05-07T06:28:23.684Z,3.60
2023-05-07T06:30:51.551Z,3.83
2023-05-07T06:33:20.753Z,3.90
2023-05-07T06:35:48.236Z,3.43
2023-05-07T06:38:16.053Z,3.42
2023-05-07T06:40:44.919Z,3.85
2023-05-07T06:43:12.201Z,3.22
2023-05-07T06:46:02.440Z,3.53
2023-05-07T06:48:30.506Z,3.63
2023-05-07T06:51:02.880Z,3.35
2023-05-07T06:53:31.752Z,3.50
2023-05-07T06:56:00.956Z,3.90
2023-05-07T06:58:28.456Z,3.80
2023-05-07T07:00:55.912Z,3.67
2023-05-07T07:03:25.136Z,3.47
2023-05-07T07:05:54.072Z,3.88
2023-05-07T07:08:22.469Z,3.20
2023-05-07T07:10:49.981Z,3.50
2023-05-07T07:13:17.393Z,3.20
2023-05-07T07:15:44.789Z,3.50
2023-05-07T07:18:12.217Z,3.33
2023-05-07T07:20:40.091Z,3.40
2023-05-07T07:23:08.998Z,3.40
2023-05-07T07:25:36.771Z,3.40
2023-05-07T07:28:04.534Z,3.90
2023-05-07T07:30:31.886Z,3.70
2023-05-07T07:33:03.592Z,3.30
2023-05-07T07:35:36.152Z,4.05
2023-05-07T07:38:05.746Z,4.10
2023-05-07T07:40:33.098Z,4.15
2023-05-07T07:43:02.545Z,3.88
2023-05-07T07:45:30.350Z,3.92
2023-05-07T07:47:57.723Z,3.72
2023-05-07T07:50:40.010Z,3.73
2023-05-07T07:53:11.508Z,4.13
2023-05-07T07:55:42.194Z,4.38
2023-05-07T07:58:11.994Z,3.72
2023-05-07T08:00:39.308Z,4.18
2023-05-07T08:03:08.438Z,3.60
2023-05-07T08:05:39.513Z,3.67
2023-05-07T08:08:07.780Z,3.78
2023-05-07T08:10:39.560Z,3.63
2023-05-07T08:13:13.226Z,4.15
2023-05-07T08:15:42.497Z,3.90
2023-05-07T08:18:10.616Z,4.13
2023-05-07T08:20:40.632Z,3.95
2023-05-07T08:23:11.140Z,3.90
2023-05-07T08:25:39.936Z,4.13
2023-05-07T08:28:09.755Z,4.10
2023-05-07T08:30:38.887Z,4.05
2023-05-07T08:33:06.718Z,4.50
2023-05-07T08:35:34.079Z,4.47
2023-05-07T08:38:01.656Z,4.25
2023-05-07T08:40:29.698Z,4.07
2023-05-07T08:42:59.565Z,4.47
2023-05-07T08:45:26.857Z,4.70
2023-05-07T08:47:59.750Z,4.78
2023-05-07T08:50:32.270Z,4.13
2023-05-07T08:53:01.158Z,4.13
2023-05-07T08:55:29.753Z,4.32
2023-05-07T08:57:57.378Z,4.70
2023-05-07T09:00:24.863Z,4.18
2023-05-07T09:02:54.588Z,5.20
2023-05-07T09:05:22.134Z,4.53
2023-05-07T09:07:50.813Z,4.88
2023-05-07T09:10:21.523Z,5.80
2023-05-07T09:12:49.437Z,4.93
2023-05-07T09:15:17.284Z,5.35
2023-05-07T09:17:45.594Z,5.80
2023-05-07T09:20:13.156Z,5.32
2023-05-07T09:22:41.314Z,5.32
2023-05-07T09:25:12.407Z,5.13
2023-05-07T09:27:40.727Z,5.50
2023-05-07T09:30:08.407Z,5.83
2023-05-07T09:32:39.300Z,5.30
2023-05-07T09:35:17.037Z,6.00
2023-05-07T09:37:46.815Z,7.20
2023-05-07T09:40:22.716Z,7.55
2023-05-07T09:42:51.013Z,6.57
2023-05-07T09:45:28.532Z,7.43
2023-05-07T09:47:58.374Z,7.78
2023-05-07T09:50:31.615Z,7.50
2023-05-07T09:52:59.369Z,8.75
2023-05-07T09:55:26.642Z,8.63
2023-05-07T09:57:54.876Z,8.10
2023-05-07T10:00:22.929Z,8.30
2023-05-07T10:02:52.909Z,8.77
2023-05-07T10:05:26.296Z,8.40
2023-05-07T10:07:58.324Z,8.00
2023-05-07T10:10:26.222Z,7.88
2023-05-07T10:12:54.264Z,7.20
2023-05-07T10:15:29.591Z,7.35
2023-05-07T10:17:57.989Z,6.90
2023-05-07T10:20:26.123Z,7.63
2023-05-07T10:22:55.088Z,7.38
2023-05-07T10:25:30.533Z,7.38
2023-05-07T10:28:06.074Z,7.53
2023-05-07T10:30:46.366Z,7.88
2023-05-07T10:33:14.053Z,7.20
2023-05-07T10:35:45.349Z,7.82
2023-05-07T10:38:13.898Z,8.45
2023-05-07T10:40:43.199Z,8.02
2023-05-07T10:43:11.234Z,8.27
2023-05-07T10:46:17.864Z,8.07
2023-05-07T10:49:07.326Z,7.82
2023-05-07T10:52:13.666Z,7.95
2023-05-07T10:54:43.945Z,7.75
2023-05-07T10:57:32.488Z,7.40
2023-05-07T11:00:05.037Z,7.47
2023-05-07T11:03:02.551Z,8.35
2023-05-07T11:05:38.436Z,8.10
2023-05-07T11:08:18.600Z,7.75
2023-05-07T11:10:59.765Z,8.07
2023-05-07T11:13:48.686Z,7.50
2023-05-07T11:16:36.876Z,6.78
2023-05-07T11:19:19.065Z,7.75
2023-05-07T11:21:50.023Z,6.70
2023-05-07T11:24:42.025Z,7.43
2023-05-07T11:27:09.803Z,7.20
2023-05-07T11:29:37.457Z,7.10
2023-05-07T11:32:11.480Z,7.30
2023-05-07T11:34:45.174Z,6.80
2023-05-07T11:37:13.604Z,5.78
2023-05-07T11:39:50.802Z,6.13
2023-05-07T11:42:28.899Z,6.70
2023-05-07T11:44:56.253Z,6.60
2023-05-07T11:47:23.626Z,5.53
2023-05-07T11:49:53.052Z,6.10
2023-05-07T11:52:21.214Z,6.77
2023-05-07T11:54:55.872Z,5.68
2023-05-07T11:57:23.661Z,5.45
2023-05-07T11:59:57.749Z,6.47
2023-05-07T12:02:29.326Z,6.80
2023-05-07T12:04:56.841Z,5.90
2023-05-07T12:07:25.011Z,5.80
2023-05-07T12:09:52.280Z,6.10
2023-05-07T12:12:19.630Z,5.70
2023-05-07T12:14:47.141Z,4.93
2023-05-07T12:17:15.029Z,5.53
2023-05-07T12:19:43.714Z,5.38
2023-05-07T12:22:11.237Z,4.65
2023-05-07T12:24:49.117Z,4.53
2023-05-07T12:27:16.957Z,4.30
2023-05-07T12:29:50.427Z,4.33
2023-05-07T12:32:18.299Z,4.47
2023-05-07T12:34:46.106Z,3.70
2023-05-07T12:37:13.909Z,4.30
2023-05-07T12:39:50.792Z,4.05
2023-05-07T12:42:20.898Z,4.60
2023-05-07T12:44:48.214Z,4.38
2023-05-07T12:47:16.071Z,4.20
2023-05-07T12:49:43.872Z,4.70
2023-05-07T12:52:11.430Z,3.97
2023-05-07T12:54:39.096Z,4.40
2023-05-07T12:57:07.710Z,4.47
2023-05-07T12:59:36.507Z,4.70
2023-05-07T13:02:03.806Z,4.60
2023-05-07T13:04:31.166Z,4.28
2023-05-07T13:06:58.694Z,3.97
2023-05-07T13:09:26.108Z,3.72
2023-05-07T13:11:53.728Z,4.22
2023-05-07T13:14:21.981Z,4.40
2023-05-07T13:16:49.702Z,3.90
2023-05-07T13:19:17.002Z,3.90
2023-05-07T13:21:44.451Z,3.25
2023-05-07T13:24:11.757Z,3.60
2023-05-07T13:26:39.028Z,3.60
2023-05-07T13:29:06.428Z,2.80
2023-05-07T13:31:34.973Z,2.83
2023-05-07T13:34:02.309Z,3.00
2023-05-07T13:36:29.607Z,3.25
2023-05-07T13:38:56.994Z,3.20
2023-05-07T13:41:24.255Z,3.08
2023-05-07T13:43:51.503Z,3.30
2023-05-07T13:46:18.776Z,3.33
2023-05-07T13:48:46.316Z,3.20
2023-05-07T13:51:13.558Z,2.75
2023-05-07T13:53:40.947Z,3.05
2023-05-07T13:56:08.256Z,3.00
2023-05-07T13:58:42.231Z,3.17
2023-05-07T14:01:15.880Z,3.63
2023-05-07T14:03:43.347Z,3.67
2023-05-07T14:06:10.749Z,4.25
2023-05-07T14:08:37.972Z,4.50
2023-05-07T14:11:05.284Z,4.32
2023-05-07T14:13:32.622Z,4.10
2023-05-07T14:16:00.158Z,4.35
2023-05-07T14:18:29.809Z,4.90
2023-05-07T14:20:57.154Z,4.70
2023-05-07T14:23:27.525Z,4.93
2023-05-07T14:25:55.213Z,4.57
2023-05-07T14:28:22.438Z,4.80
2023-05-07T14:30:49.976Z,4.47
2023-05-07T14:33:17.961Z,4.67
2023-05-07T14:35:49.624Z,5.60
2023-05-07T14:38:17.030Z,5.07
2023-05-07T14:40:44.267Z,5.65
2023-05-07T14:43:11.594Z,5.30
2023-05-07T14:45:39.374Z,4.73
2023-05-07T14:48:06.697Z,5.18
2023-05-07T14:50:34.026Z,5.20
2023-05-07T14:53:01.331Z,5.22
2023-05-07T14:55:28.525Z,5.13
2023-05-07T14:57:56.750Z,5.40
2023-05-07T15:00:24.097Z,5.82
2023-05-07T15:02:51.485Z,5.15
2023-05-07T15:05:20.379Z,5.40
2023-05-07T15:07:47.704Z,5.45
2023-05-07T15:10:14.916Z,6.13
2023-05-07T15:12:42.259Z,5.63
2023-05-07T15:15:10.301Z,5.30
2023-05-07T15:17:37.808Z,5.70
2023-05-07T15:20:05.921Z,5.40
2023-05-07T15:22:33.455Z,5.73
2023-05-07T15:25:00.718Z,5.60
2023-05-07T15:27:28.038Z,5.20
2023-05-07T15:29:55.298Z,6.32
2023-05-07T15:32:22.733Z,5.88
2023-05-07T15:34:50.048Z,5.50
2023-05-07T15:37:17.300Z,5.65
2023-05-07T15:39:44.517Z,5.07
2023-05-07T15:42:11.823Z,5.65
2023-05-07T15:44:39.210Z,6.22
2023-05-07T15:47:06.482Z,6.17
2023-05-07T15:49:33.722Z,6.10
2023-05-07T15:52:01.076Z,5.82
2023-05-07T15:54:28.295Z,5.35
2023-05-07T15:56:55.643Z,5.50
2023-05-07T15:59:22.902Z,5.27
2023-05-07T16:01:50.412Z,5.90
2023-05-07T16:04:17.834Z,5.45
2023-05-07T16:06:47.529Z,5.70
2023-05-07T16:09:15.145Z,5.35
2023-05-07T16:11:42.391Z,5.30
2023-05-07T16:14:09.872Z,5.18
2023-05-07T16:16:38.145Z,5.30
2023-05-07T16:19:05.851Z,5.03
2023-05-07T16:21:33.468Z,5.57
2023-05-07T16:24:00.740Z,5.07
2023-05-07T16:26:28.086Z,5.22
2023-05-07T16:28:55.434Z,5.22
2023-05-07T16:31:22.685Z,4.88
2023-05-07T16:33:50.050Z,5.45
2023-05-07T16:36:17.330Z,4.80
2023-05-07T16:38:44.724Z,5.00
2023-05-07T16:41:12.037Z,4.60
2023-05-07T16:43:39.504Z,4.70
2023-05-07T16:46:06.920Z,4.45
2023-05-07T16:48:34.322Z,4.77
2023-05-07T16:51:01.566Z,3.92
2023-05-07T16:53:28.838Z,4.65
2023-05-07T16:55:56.720Z,4.60
2023-05-07T16:58:24.280Z,4.40
2023-05-07T17:00:51.771Z,4.30
2023-05-07T17:03:19.818Z,4.10
2023-05-07T17:05:47.223Z,4.25
2023-05-07T17:08:14.795Z,4.50
2023-05-07T17:10:42.199Z,4.00
2023-05-07T17:13:09.691Z,4.07
2023-05-07T17:15:36.938Z,4.60
2023-05-07T17:18:04.398Z,4.07
2023-05-07T17:20:31.645Z,3.83
2023-05-07T17:22:58.947Z,3.70
2023-05-07T17:25:26.211Z,3.87
2023-05-07T17:27:53.650Z,3.65
2023-05-07T17:30:21.187Z,3.45
2023-05-07T17:32:48.572Z,3.70
2023-05-07T17:35:15.870Z,3.47
2023-05-07T17:37:47.280Z,3.17
2023-05-07T17:40:15.313Z,3.50
2023-05-07T17:42:42.562Z,3.03
2023-05-07T17:45:10.642Z,3.00
2023-05-07T17:47:37.914Z,3.40
2023-05-07T17:50:10.684Z,3.10
2023-05-07T17:52:38.512Z,3.30
2023-05-07T17:55:06.494Z,3.25
2023-05-07T17:57:36.611Z,3.30
2023-05-07T18:00:04.839Z,3.17
2023-05-07T18:02:33.283Z,3.00
2023-05-07T18:05:00.698Z,3.50
2023-05-07T18:07:27.983Z,3.30
2023-05-07T18:09:55.360Z,3.17
2023-05-07T18:12:23.522Z,3.65
2023-05-07T18:14:52.000Z,3.40
2023-05-07T18:17:19.444Z,3.40
2023-05-07T18:19:46.739Z,3.70
2023-05-07T18:22:14.009Z,3.10
2023-05-07T18:24:41.276Z,3.58
2023-05-07T18:27:08.458Z,3.40
2023-05-07T18:29:35.766Z,3.10
2023-05-07T18:32:03.008Z,3.20
2023-05-07T18:34:30.393Z,3.05
2023-05-07T18:36:57.988Z,3.10
2023-05-07T18:39:25.260Z,3.00
2023-05-07T18:41:53.225Z,3.33
2023-05-07T18:44:20.522Z,3.00
2023-05-07T18:46:48.757Z,3.20
2023-05-07T18:49:16.098Z,2.92
2023-05-07T18:51:43.379Z,3.07
2023-05-07T18:54:10.659Z,3.65
2023-05-07T18:56:37.938Z,3.22
2023-05-07T18:59:05.398Z,3.20
2023-05-07T19:01:32.697Z,3.58
2023-05-07T19:04:00.170Z,3.47
2023-05-07T19:06:27.610Z,3.50
2023-05-07T19:08:54.998Z,3.60
2023-05-07T19:11:23.359Z,3.50
2023-05-07T19:13:51.023Z,3.35
2023-05-07T19:16:18.343Z,3.53
2023-05-07T19:18:45.737Z,3.60
2023-05-07T19:21:13.073Z,3.80
2023-05-07T19:23:43.233Z,3.30
2023-05-07T19:26:10.726Z,4.00
2023-05-07T19:28:39.069Z,3.80
2023-05-07T19:31:07.671Z,4.00
2023-05-07T19:33:34.882Z,3.80
2023-05-07T19:36:02.255Z,3.70
2023-05-07T19:38:29.538Z,3.90
2023-05-07T19:40:57.801Z,3.90
2023-05-07T19:43:25.024Z,3.97
2023-05-07T19:45:55.541Z,3.75
2023-05-07T19:48:22.836Z,3.60
2023-05-07T19:50:50.072Z,3.63
2023-05-07T19:53:17.408Z,3.60
2023-05-07T19:55:44.665Z,3.63
2023-05-07T19:58:11.934Z,3.53
2023-05-07T20:03:06.623Z,3.70
2023-05-07T20:05:33.929Z,4.37
2023-05-07T20:08:02.511Z,3.80
2023-05-07T20:10:29.777Z,3.60
2023-05-07T20:12:57.086Z,4.07
2023-05-07T20:15:24.379Z,4.38
2023-05-07T20:17:51.685Z,4.00
2023-05-07T20:20:19.070Z,4.47
2023-05-07T20:22:46.389Z,4.40
2023-05-07T20:25:15.004Z,4.43
2023-05-07T20:27:42.417Z,3.90
2023-05-07T20:30:10.506Z,4.20
2023-05-07T20:32:38.054Z,4.35
2023-05-07T20:35:08.351Z,4.45
2023-05-07T20:37:36.100Z,5.00
2023-05-07T20:40:04.655Z,4.45
2023-05-07T20:42:32.178Z,5.00
2023-05-07T20:45:00.563Z,4.60
2023-05-07T20:47:32.184Z,4.45
2023-05-07T20:49:59.490Z,4.70
2023-05-07T20:52:26.677Z,4.78
2023-05-07T20:54:54.038Z,4.70
2023-05-07T20:57:21.329Z,4.57
2023-05-07T20:59:48.725Z,5.00
2023-05-07T21:02:16.153Z,5.30
2023-05-07T21:04:43.624Z,4.85
2023-05-07T21:07:10.980Z,5.10
2023-05-07T21:09:38.310Z,5.32
2023-05-07T21:12:05.784Z,5.38
2023-05-07T21:14:33.007Z,4.70
2023-05-07T21:17:00.602Z,5.15
2023-05-07T21:19:28.101Z,5.30
2023-05-07T21:21:57.828Z,4.68
2023-05-07T21:24:25.379Z,5.22
2023-05-07T21:26:56.171Z,5.10
2023-05-07T21:29:23.623Z,4.80
2023-05-07T21:31:51.075Z,5.10
2023-05-07T21:34:18.481Z,5.57
2023-05-07T21:36:45.731Z,5.38
2023-05-07T21:39:13.103Z,5.78
2023-05-07T21:41:40.379Z,5.53
2023-05-07T21:44:07.686Z,6.47
2023-05-07T21:46:35.304Z,5.68
2023-05-07T21:49:02.602Z,6.45
2023-05-07T21:51:29.792Z,7.05
2023-05-07T21:53:57.073Z,6.53
2023-05-07T21:56:24.548Z,5.93
2023-05-07T21:58:51.906Z,6.50
2023-05-07T22:01:19.221Z,7.63
2023-05-07T22:03:46.696Z,6.35
2023-05-07T22:06:14.317Z,6.95
2023-05-07T22:08:41.597Z,7.17
2023-05-07T22:11:08.799Z,7.38
2023-05-07T22:13:36.207Z,7.35
2023-05-07T22:16:03.842Z,7.57
2023-05-07T22:18:31.127Z,7.80
2023-05-07T22:20:58.380Z,7.60
2023-05-07T22:23:25.610Z,8.00
2023-05-07T22:25:52.956Z,8.13
2023-05-07T22:28:20.343Z,8.00
2023-05-07T22:30:47.596Z,8.85
2023-05-07T22:33:14.850Z,8.90
2023-05-07T22:35:42.072Z,8.23
2023-05-07T22:38:09.394Z,9.05
2023-05-07T22:40:36.591Z,9.18
2023-05-07T22:43:03.814Z,9.32
2023-05-07T22:45:31.113Z,9.70
2023-05-07T22:47:58.560Z,9.45
2023-05-07T22:50:25.900Z,9.80
2023-05-07T22:52:53.240Z,9.43
2023-05-07T22:55:20.630Z,8.63
2023-05-07T22:57:47.914Z,10.00
2023-05-07T23:00:15.455Z,9.63
2023-05-07T23:02:43.146Z,10.10
2023-05-07T23:05:10.502Z,10.05
2023-05-07T23:07:37.909Z,9.35
2023-05-07T23:10:05.755Z,9.70
2023-05-07T23:12:33.015Z,9.55
2023-05-07T23:15:00.289Z,8.32
2023-05-07T23:17:27.887Z,9.50
2023-05-07T23:19:55.147Z,9.48
2023-05-07T23:22:22.515Z,9.67
2023-05-07T23:24:49.766Z,9.25
2023-05-07T23:27:17.093Z,8.80
2023-05-07T23:29:46.058Z,9.18
2023-05-07T23:32:13.328Z,9.18
2023-05-07T23:34:40.867Z,10.17
2023-05-07T23:37:11.183Z,9.10
2023-05-07T23:39:38.441Z,10.68
2023-05-07T23:42:05.797Z,9.43
2023-05-07T23:44:33.109Z,9.60
2023-05-07T23:47:00.318Z,8.90
2023-05-07T23:49:27.691Z,10.35
2023-05-07T23:51:55.007Z,9.70
2023-05-07T23:54:22.312Z,8.95
2023-05-07T23:56:49.529Z,10.32
2023-05-07T23:59:16.844Z,9.57
